createdAt,value
2022-08-18T00:01:10.531Z,9.33
2022-08-18T00:03:55.835Z,10.20
2022-08-18T00:06:28.262Z,10.70
2022-08-18T00:08:57.669Z,11.30
2022-08-18T00:11:25.510Z,14.73
2022-08-18T00:13:53.241Z,11.50
2022-08-18T00:16:22.627Z,10.97
2022-08-18T00:18:50.535Z,11.03
2022-08-18T00:21:18.770Z,11.20
2022-08-18T00:23:46.763Z,11.00
2022-08-18T00:26:14.653Z,9.50
2022-08-18T00:28:42.588Z,9.50
2022-08-18T00:31:10.355Z,11.07
2022-08-18T00:33:39.504Z,9.17
2022-08-18T00:36:07.628Z,9.60
2022-08-18T00:38:35.325Z,9.07
2022-08-18T00:41:03.177Z,11.70
2022-08-18T00:43:35.838Z,9.30
2022-08-18T00:46:03.630Z,11.40
2022-08-18T00:48:31.577Z,9.13
2022-08-18T00:51:09.154Z,10.60
2022-08-18T00:53:42.108Z,9.07
2022-08-18T00:56:15.850Z,8.60
2022-08-18T00:58:47.946Z,8.37
2022-08-18T01:01:18.368Z,10.20
2022-08-18T01:03:53.010Z,9.23
2022-08-18T01:06:32.369Z,8.93
2022-08-18T01:09:00.293Z,9.93
2022-08-18T01:11:29.424Z,8.70
2022-08-18T01:13:58.814Z,9.07
2022-08-18T01:16:55.325Z,9.10
2022-08-18T01:19:44.210Z,13.83
2022-08-18T01:22:20.028Z,11.80
2022-08-18T01:25:08.406Z,9.50
2022-08-18T01:27:36.435Z,8.10
2022-08-18T01:30:10.486Z,10.00
2022-08-18T01:32:39.993Z,11.80
2022-08-18T01:35:11.277Z,8.57
2022-08-18T01:37:41.218Z,7.67
2022-08-18T01:41:22.596Z,8.30
2022-08-18T01:43:03.331Z,8.57
2022-08-18T01:45:33.561Z,7.87
2022-08-18T01:48:01.861Z,10.20
2022-08-18T01:50:30.276Z,8.50
2022-08-18T01:52:58.056Z,8.13
2022-08-18T01:55:28.348Z,8.60
2022-08-18T01:57:56.636Z,7.50
2022-08-18T02:00:25.237Z,9.50
2022-08-18T02:02:57.974Z,9.50
2022-08-18T02:05:35.757Z,8.87
2022-08-18T02:08:03.775Z,10.20
2022-08-18T02:10:33.211Z,10.90
2022-08-18T02:13:01.288Z,9.70
2022-08-18T02:15:29.133Z,12.17
2022-08-18T02:17:56.793Z,9.70
2022-08-18T02:20:24.614Z,15.17
2022-08-18T02:22:52.518Z,9.43
2022-08-18T02:25:20.688Z,9.67
2022-08-18T02:27:49.985Z,8.67
2022-08-18T02:30:19.838Z,9.67
2022-08-18T02:32:47.791Z,10.00
2022-08-18T02:35:15.652Z,10.63
2022-08-18T02:37:47.848Z,9.60
2022-08-18T02:40:17.248Z,9.63
2022-08-18T02:42:45.846Z,8.93
2022-08-18T02:45:15.739Z,7.57
2022-08-18T02:47:44.563Z,8.93
2022-08-18T02:50:12.642Z,11.87
2022-08-18T02:52:40.760Z,11.13
2022-08-18T02:55:09.668Z,9.10
2022-08-18T02:57:37.918Z,10.50
2022-08-18T03:00:06.426Z,10.27
2022-08-18T03:02:35.548Z,9.97
2022-08-18T03:05:03.646Z,10.00
2022-08-18T03:07:31.711Z,10.20
2022-08-18T03:10:31.248Z,8.60
2022-08-18T03:12:47.296Z,10.03
2022-08-18T03:15:15.063Z,12.10
2022-08-18T03:17:44.268Z,8.30
2022-08-18T03:20:12.659Z,8.60
2022-08-18T03:22:40.361Z,8.50
2022-08-18T03:25:10.073Z,9.70
2022-08-18T03:27:37.837Z,9.07
2022-08-18T03:30:06.663Z,11.53
2022-08-18T03:32:39.314Z,9.30
2022-08-18T03:35:15.897Z,10.67
2022-08-18T03:37:44.486Z,9.13
2022-08-18T03:40:12.994Z,11.10
2022-08-18T03:42:40.890Z,13.43
2022-08-18T03:45:15.880Z,10.20
2022-08-18T03:47:46.500Z,8.20
2022-08-18T03:50:15.745Z,10.63
2022-08-18T03:52:43.548Z,10.13
2022-08-18T03:55:11.346Z,10.07
2022-08-18T03:57:39.511Z,10.20
2022-08-18T04:00:09.626Z,14.00
2022-08-18T04:02:37.475Z,14.47
2022-08-18T04:05:06.035Z,9.57
2022-08-18T04:07:35.645Z,10.00
2022-08-18T04:10:03.327Z,12.37
2022-08-18T04:12:31.553Z,9.07
2022-08-18T04:14:59.407Z,11.43
2022-08-18T04:17:27.214Z,10.63
2022-08-18T04:19:55.999Z,9.23
2022-08-18T04:22:24.899Z,11.43
2022-08-18T04:24:55.565Z,9.63
2022-08-18T04:27:23.903Z,10.93
2022-08-18T04:29:51.975Z,12.13
2022-08-18T04:32:20.347Z,11.50
2022-08-18T04:34:48.099Z,11.97
2022-08-18T04:37:16.462Z,11.57
2022-08-18T04:39:46.642Z,9.07
2022-08-18T04:42:16.600Z,11.43
2022-08-18T04:44:44.410Z,12.93
2022-08-18T04:47:13.262Z,10.60
2022-08-18T04:49:41.186Z,10.40
2022-08-18T04:52:40.629Z,10.70
2022-08-18T04:55:10.292Z,10.80
2022-08-18T04:57:39.754Z,10.83
2022-08-18T05:00:12.035Z,10.47
2022-08-18T05:02:39.930Z,9.27
2022-08-18T05:05:08.792Z,11.17
2022-08-18T05:07:36.632Z,10.17
2022-08-18T05:10:05.551Z,12.00
2022-08-18T05:12:33.323Z,10.43
2022-08-18T05:15:02.553Z,12.77
2022-08-18T05:17:31.065Z,7.80
2022-08-18T05:20:01.012Z,14.63
2022-08-18T05:22:31.120Z,11.03
2022-08-18T05:25:00.009Z,12.60
2022-08-18T05:27:33.331Z,9.10
2022-08-18T05:30:03.427Z,11.60
2022-08-18T05:32:46.980Z,10.17
2022-08-18T05:35:23.541Z,11.03
2022-08-18T05:38:12.063Z,10.93
2022-08-18T05:40:39.885Z,10.67
2022-08-18T05:43:09.744Z,10.87
2022-08-18T05:45:40.928Z,15.70
2022-08-18T05:48:08.916Z,12.43
2022-08-18T05:50:38.868Z,11.67
2022-08-18T05:53:14.057Z,9.80
2022-08-18T05:56:07.887Z,10.00
2022-08-18T05:58:42.063Z,10.97
2022-08-18T06:01:16.995Z,10.23
2022-08-18T06:03:48.936Z,11.57
2022-08-18T06:06:20.789Z,12.40
2022-08-18T06:08:57.685Z,12.50
2022-08-18T06:11:26.107Z,13.23
2022-08-18T06:14:00.059Z,12.83
2022-08-18T06:16:44.513Z,17.00
2022-08-18T06:19:28.556Z,11.80
2022-08-18T06:22:08.643Z,10.37
2022-08-18T06:24:42.958Z,11.43
2022-08-18T06:27:20.360Z,15.73
2022-08-18T06:30:04.229Z,15.83
2022-08-18T06:32:52.921Z,11.20
2022-08-18T06:35:34.765Z,11.00
2022-08-18T06:38:46.163Z,12.33
2022-08-18T06:41:42.533Z,10.40
2022-08-18T06:44:09.259Z,10.67
2022-08-18T06:46:43.509Z,12.00
2022-08-18T06:49:15.593Z,16.33
2022-08-18T06:51:43.557Z,14.50
2022-08-18T06:54:29.343Z,13.90
2022-08-18T06:56:59.227Z,13.83
2022-08-18T06:59:29.639Z,12.90
2022-08-18T07:02:02.035Z,11.23
2022-08-18T07:05:06.360Z,13.43
2022-08-18T07:07:39.419Z,11.10
2022-08-18T07:10:31.046Z,11.10
2022-08-18T07:13:18.546Z,13.23
2022-08-18T07:15:48.352Z,13.80
2022-08-18T07:18:24.497Z,11.60
2022-08-18T07:20:56.112Z,8.93
2022-08-18T07:23:30.176Z,10.33
2022-08-18T07:26:09.565Z,14.90
2022-08-18T07:28:41.690Z,11.70
2022-08-18T07:31:28.607Z,14.33
2022-08-18T07:34:00.019Z,11.47
2022-08-18T07:36:35.461Z,10.47
2022-08-18T07:39:10.121Z,11.90
2022-08-18T07:41:43.997Z,10.63
2022-08-18T07:44:18.683Z,13.50
2022-08-18T07:46:55.128Z,13.63
2022-08-18T07:49:25.424Z,9.13
2022-08-18T07:52:03.984Z,10.37
2022-08-18T07:54:51.308Z,13.07
2022-08-18T07:57:26.281Z,10.10
2022-08-18T08:00:03.092Z,9.60
2022-08-18T08:02:39.954Z,10.80
2022-08-18T08:05:14.190Z,11.20
2022-08-18T08:07:50.516Z,9.80
2022-08-18T08:10:31.656Z,10.47
2022-08-18T08:13:11.411Z,9.90
2022-08-18T08:15:50.378Z,12.37
2022-08-18T08:18:26.374Z,14.90
2022-08-18T08:20:57.454Z,12.60
2022-08-18T08:23:32.802Z,16.40
2022-08-18T08:26:21.855Z,13.80
2022-08-18T08:28:59.208Z,14.70
2022-08-18T08:31:37.293Z,18.70
2022-08-18T08:34:12.919Z,12.17
2022-08-18T08:36:44.672Z,10.70
2022-08-18T08:39:21.738Z,14.40
2022-08-18T08:42:29.334Z,15.30
2022-08-18T08:44:59.091Z,13.50
2022-08-18T08:47:33.023Z,13.63
2022-08-18T08:50:05.140Z,15.50
2022-08-18T08:52:40.239Z,10.50
2022-08-18T08:55:14.904Z,12.93
2022-08-18T08:57:48.812Z,11.17
2022-08-18T09:00:16.636Z,14.53
2022-08-18T09:03:02.467Z,11.60
2022-08-18T09:05:36.189Z,9.97
2022-08-18T09:08:36.570Z,10.87
2022-08-18T09:11:28.241Z,12.00
2022-08-18T09:14:18.608Z,13.13
2022-08-18T09:16:55.691Z,11.57
2022-08-18T09:19:43.532Z,15.43
2022-08-18T09:22:20.442Z,14.77
2022-08-18T09:24:52.298Z,12.67
2022-08-18T09:27:53.769Z,14.50
2022-08-18T09:30:47.497Z,11.00
2022-08-18T09:33:34.116Z,12.60
2022-08-18T09:36:28.707Z,12.63
2022-08-18T09:39:20.464Z,15.13
2022-08-18T09:41:54.685Z,12.17
2022-08-18T09:45:02.073Z,12.40
2022-08-18T09:48:02.321Z,12.07
2022-08-18T09:50:38.878Z,16.03
2022-08-18T09:53:52.278Z,14.13
2022-08-18T09:56:58.894Z,12.67
2022-08-18T10:00:08.198Z,25.10
2022-08-18T10:03:31.112Z,15.90
2022-08-18T10:06:15.327Z,11.50
2022-08-18T10:09:17.864Z,16.10
2022-08-18T10:12:15.653Z,14.10
2022-08-18T10:15:08.974Z,14.80
2022-08-18T10:17:51.885Z,10.90
2022-08-18T10:20:35.666Z,12.23
2022-08-18T10:23:04.515Z,16.20
2022-08-18T10:25:39.493Z,11.80
2022-08-18T10:28:11.895Z,9.50
2022-08-18T10:31:06.306Z,16.80
2022-08-18T10:34:16.571Z,10.67
2022-08-18T10:36:51.955Z,13.07
2022-08-18T10:39:23.176Z,13.80
2022-08-18T10:42:06.118Z,15.80
2022-08-18T10:44:41.931Z,17.07
2022-08-18T10:47:12.249Z,16.37
2022-08-18T10:49:46.609Z,13.77
2022-08-18T10:52:46.257Z,16.23
2022-08-18T10:59:01.781Z,18.83
2022-08-18T11:01:40.023Z,17.73
2022-08-18T11:04:14.479Z,14.20
2022-08-18T11:07:07.918Z,13.40
2022-08-18T11:16:04.056Z,16.03
2022-08-18T11:18:43.693Z,17.60
2022-08-18T11:21:34.133Z,18.77
2022-08-18T11:24:13.792Z,13.57
2022-08-18T11:26:45.015Z,17.93
2022-08-18T11:29:27.110Z,14.67
2022-08-18T11:31:59.630Z,12.20
2022-08-18T11:34:36.393Z,15.07
2022-08-18T11:37:08.978Z,14.80
2022-08-18T11:39:47.659Z,14.93
2022-08-18T11:42:24.981Z,16.20
2022-08-18T11:44:55.723Z,14.90
2022-08-18T11:47:27.495Z,16.20
2022-08-18T11:50:00.193Z,14.40
2022-08-18T11:52:35.120Z,14.00
2022-08-18T11:55:14.301Z,17.10
2022-08-18T11:57:59.271Z,14.20
2022-08-18T12:00:43.212Z,18.60
2022-08-18T12:03:19.142Z,14.50
2022-08-18T12:05:55.720Z,15.80
2022-08-18T12:11:27.018Z,14.83
2022-08-18T12:14:29.838Z,14.73
2022-08-18T12:17:01.423Z,20.73
2022-08-18T12:19:31.050Z,15.20
2022-08-18T12:22:01.983Z,15.13
2022-08-18T12:27:32.154Z,15.87
2022-08-18T12:30:02.787Z,11.97
2022-08-18T12:32:41.340Z,14.90
2022-08-18T12:35:21.669Z,13.23
2022-08-18T12:38:14.100Z,18.90
2022-08-18T12:40:38.336Z,13.47
2022-08-18T12:43:06.555Z,12.23
2022-08-18T12:45:38.204Z,18.57
2022-08-18T12:48:07.682Z,15.67
2022-08-18T12:50:49.685Z,14.77
2022-08-18T12:53:30.683Z,15.53
2022-08-18T12:56:19.713Z,13.97
2022-08-18T12:58:47.958Z,11.27
2022-08-18T13:01:17.564Z,14.37
2022-08-18T13:06:40.634Z,11.73
2022-08-18T13:09:16.678Z,10.73
2022-08-18T13:11:56.662Z,17.20
2022-08-18T13:14:28.458Z,15.20
2022-08-18T13:16:57.664Z,11.53
2022-08-18T13:19:25.608Z,12.67
2022-08-18T13:22:00.026Z,14.20
2022-08-18T13:24:27.839Z,14.23
2022-08-18T13:26:56.131Z,13.80
2022-08-18T13:29:25.546Z,13.73
2022-08-18T13:31:57.801Z,12.97
2022-08-18T13:34:30.018Z,15.27
2022-08-18T13:36:58.189Z,12.00
2022-08-18T13:39:34.316Z,15.67
2022-08-18T13:42:26.866Z,15.60
2022-08-18T13:44:53.257Z,16.13
2022-08-18T13:47:21.346Z,16.87
2022-08-18T13:49:58.063Z,12.80
2022-08-18T13:52:34.930Z,12.57
2022-08-18T13:55:11.751Z,10.90
2022-08-18T13:57:48.170Z,12.43
2022-08-18T14:00:29.377Z,11.00
2022-08-18T14:03:02.132Z,15.87
2022-08-18T14:05:51.023Z,9.43
2022-08-18T14:08:20.252Z,10.93
2022-08-18T14:10:52.357Z,9.27
2022-08-18T14:13:24.711Z,10.60
2022-08-18T14:15:54.757Z,12.33
2022-08-18T14:18:28.928Z,11.93
2022-08-18T14:21:23.258Z,11.57
2022-08-18T14:24:10.217Z,11.00
2022-08-18T14:26:51.084Z,11.50
2022-08-18T14:29:47.467Z,12.40
2022-08-18T14:32:08.545Z,13.47
2022-08-18T14:34:36.796Z,11.80
2022-08-18T14:37:05.942Z,10.40
2022-08-18T14:39:37.825Z,10.87
2022-08-18T14:42:06.454Z,10.70
2022-08-18T14:44:35.936Z,13.47
2022-08-18T14:47:03.667Z,11.60
2022-08-18T14:49:31.383Z,12.57
2022-08-18T14:52:00.375Z,12.37
2022-08-18T14:54:31.125Z,13.10
2022-08-18T14:57:01.660Z,11.33
2022-08-18T14:59:34.673Z,10.83
2022-08-18T15:02:07.406Z,14.87
2022-08-18T15:04:55.828Z,11.80
2022-08-18T15:07:25.803Z,15.10
2022-08-18T15:10:15.198Z,12.70
2022-08-18T15:12:43.512Z,10.20
2022-08-18T15:15:18.042Z,12.13
2022-08-18T15:17:50.247Z,14.30
2022-08-18T15:20:24.064Z,11.57
2022-08-18T15:23:22.812Z,11.73
2022-08-18T15:25:54.514Z,12.13
2022-08-18T15:28:27.091Z,10.20
2022-08-18T15:33:42.775Z,11.47
2022-08-18T15:36:16.280Z,11.03
2022-08-18T15:38:44.333Z,15.80
2022-08-18T15:41:29.300Z,9.73
2022-08-18T15:44:00.777Z,12.30
2022-08-18T15:46:28.777Z,11.60
2022-08-18T15:48:57.300Z,14.20
2022-08-18T15:51:26.267Z,16.77
2022-08-18T15:54:04.109Z,12.83
2022-08-18T15:56:34.697Z,11.77
2022-08-18T15:59:06.519Z,14.70
2022-08-18T16:01:39.560Z,12.63
2022-08-18T16:04:10.154Z,13.53
2022-08-18T16:06:41.298Z,12.43
2022-08-18T16:09:10.091Z,11.07
2022-08-18T16:11:40.566Z,11.30
2022-08-18T16:14:10.134Z,12.13
2022-08-18T16:16:38.561Z,13.17
2022-08-18T16:19:07.631Z,10.00
2022-08-18T16:21:40.240Z,10.40
2022-08-18T16:24:09.472Z,11.07
2022-08-18T16:26:37.261Z,10.83
2022-08-18T16:29:06.327Z,11.40
2022-08-18T16:31:34.091Z,12.93
2022-08-18T16:34:01.801Z,9.83
2022-08-18T16:36:29.849Z,13.87
2022-08-18T16:38:58.514Z,11.57
2022-08-18T16:41:27.598Z,13.03
2022-08-18T16:43:56.204Z,9.83
2022-08-18T16:46:27.896Z,13.00
2022-08-18T16:48:56.871Z,12.67
2022-08-18T16:51:26.647Z,11.93
2022-08-18T16:53:54.540Z,11.90
2022-08-18T16:56:25.181Z,13.33
2022-08-18T16:59:11.124Z,12.83
2022-08-18T17:01:58.142Z,20.03
2022-08-18T17:04:29.104Z,14.67
2022-08-18T17:06:58.096Z,13.53
2022-08-18T17:09:25.987Z,14.70
2022-08-18T17:11:54.825Z,11.17
2022-08-18T17:14:23.627Z,13.43
2022-08-18T17:16:54.239Z,11.77
2022-08-18T17:19:23.339Z,14.37
2022-08-18T17:21:51.196Z,11.97
2022-08-18T17:24:27.696Z,15.73
2022-08-18T17:27:12.268Z,12.50
2022-08-18T17:30:01.073Z,14.43
2022-08-18T17:35:15.448Z,12.60
2022-08-18T17:37:49.270Z,16.80
2022-08-18T17:40:21.561Z,12.87
2022-08-18T17:42:51.506Z,13.87
2022-08-18T17:45:21.951Z,12.90
2022-08-18T17:47:57.952Z,16.23
2022-08-18T17:50:47.454Z,15.30
2022-08-18T17:53:16.289Z,16.93
2022-08-18T17:55:48.032Z,17.13
2022-08-18T17:58:22.085Z,15.10
2022-08-18T18:00:49.823Z,18.00
2022-08-18T18:03:19.129Z,14.70
2022-08-18T18:05:52.988Z,17.03
2022-08-18T18:08:21.137Z,18.47
2022-08-18T18:11:04.410Z,17.97
2022-08-18T18:13:34.215Z,23.57
2022-08-18T18:16:19.485Z,16.40
2022-08-18T18:19:01.511Z,21.60
2022-08-18T18:21:53.347Z,21.27
2022-08-18T18:24:23.603Z,18.50
2022-08-18T18:26:52.582Z,19.27
2022-08-18T18:29:29.041Z,20.73
2022-08-18T18:32:03.257Z,22.77
2022-08-18T18:34:39.266Z,20.03
2022-08-18T18:37:24.966Z,20.63
2022-08-18T18:39:57.375Z,23.00
2022-08-18T18:42:27.270Z,20.83
2022-08-18T18:44:57.291Z,27.87
2022-08-18T18:47:42.669Z,24.47
2022-08-18T18:50:18.270Z,21.00
2022-08-18T18:52:56.276Z,20.63
2022-08-18T18:55:26.024Z,21.80
2022-08-18T18:58:13.726Z,20.83
2022-08-18T19:00:53.731Z,27.20
2022-08-18T19:03:29.739Z,21.70
2022-08-18T19:06:17.083Z,22.10
2022-08-18T19:08:54.657Z,20.70
2022-08-18T19:11:34.431Z,20.07
2022-08-18T19:14:07.710Z,19.77
2022-08-18T19:16:43.527Z,19.57
2022-08-18T19:19:38.071Z,22.10
2022-08-18T19:22:17.108Z,20.13
2022-08-18T19:24:53.488Z,25.20
2022-08-18T19:27:28.951Z,19.17
2022-08-18T19:30:02.660Z,21.20
2022-08-18T19:32:42.778Z,19.60
2022-08-18T19:35:14.943Z,20.60
2022-08-18T19:38:15.284Z,24.90
2022-08-18T19:40:50.508Z,21.10
2022-08-18T19:43:27.573Z,21.30
2022-08-18T19:46:05.597Z,22.33
2022-08-18T19:48:44.399Z,24.13
2022-08-18T19:51:27.937Z,22.27
2022-08-18T19:54:18.326Z,22.27
2022-08-18T19:56:59.508Z,25.60
2022-08-18T20:00:12.074Z,23.97
2022-08-18T20:02:51.068Z,22.43
2022-08-18T20:05:32.467Z,22.47
2022-08-18T20:08:21.625Z,21.70
2022-08-18T20:11:05.767Z,22.93
2022-08-18T20:13:37.688Z,21.93
2022-08-18T20:16:43.361Z,19.07
2022-08-18T20:19:43.677Z,20.80
2022-08-18T20:22:27.805Z,22.63
2022-08-18T20:24:57.138Z,18.00
2022-08-18T20:27:34.969Z,20.50
2022-08-18T20:30:24.288Z,18.93
2022-08-18T20:33:31.378Z,21.10
2022-08-18T20:36:17.527Z,18.30
2022-08-18T20:38:48.026Z,20.30
2022-08-18T20:41:50.876Z,18.20
2022-08-18T20:44:58.783Z,18.37
2022-08-18T20:47:44.541Z,20.37
2022-08-18T20:50:48.534Z,19.40
2022-08-18T20:53:40.850Z,20.37
2022-08-18T20:56:31.225Z,19.93
2022-08-18T20:59:08.998Z,20.17
2022-08-18T21:01:39.041Z,20.83
2022-08-18T21:04:08.744Z,20.67
2022-08-18T21:06:44.489Z,18.67
2022-08-18T21:09:18.754Z,20.23
2022-08-18T21:11:48.623Z,18.33
2022-08-18T21:14:25.084Z,19.93
2022-08-18T21:16:58.181Z,18.63
2022-08-18T21:19:29.076Z,16.97
2022-08-18T21:22:00.612Z,18.70
2022-08-18T21:24:33.331Z,18.83
2022-08-18T21:27:12.666Z,20.03
2022-08-18T21:29:49.194Z,20.80
2022-08-18T21:32:21.276Z,24.27
2022-08-18T21:34:50.863Z,19.10
2022-08-18T21:37:19.860Z,21.77
2022-08-18T21:39:50.884Z,22.43
2022-08-18T21:42:22.798Z,22.00
2022-08-18T21:44:54.255Z,22.00
2022-08-18T21:47:24.891Z,20.43
2022-08-18T21:50:09.417Z,20.67
2022-08-18T21:52:40.188Z,24.27
2022-08-18T21:55:15.504Z,24.90
2022-08-18T21:58:02.771Z,24.53
2022-08-18T22:00:34.030Z,19.37
2022-08-18T22:03:22.982Z,19.93
2022-08-18T22:06:02.229Z,22.40
2022-08-18T22:08:32.739Z,18.87
2022-08-18T22:12:02.557Z,23.10
2022-08-18T22:14:55.269Z,19.70
2022-08-18T22:17:31.318Z,20.37
2022-08-18T22:20:32.041Z,20.40
2022-08-18T22:23:23.828Z,17.80
2022-08-18T22:25:51.704Z,21.53
2022-08-18T22:28:22.752Z,19.03
2022-08-18T22:30:50.508Z,21.33
2022-08-18T22:33:18.249Z,22.17
2022-08-18T22:35:54.701Z,23.00
2022-08-18T22:38:32.506Z,22.70
2022-08-18T22:41:01.411Z,25.67
2022-08-18T22:43:29.143Z,20.80
2022-08-18T22:45:56.948Z,21.67
2022-08-18T22:48:25.751Z,22.57
2022-08-18T22:50:53.537Z,27.13
2022-08-18T22:53:21.698Z,21.07
2022-08-18T22:55:53.235Z,23.50
2022-08-18T22:58:27.951Z,25.03
2022-08-18T23:01:01.216Z,23.07
2022-08-18T23:03:41.744Z,20.30
2022-08-18T23:06:11.351Z,21.10
2022-08-18T23:08:55.383Z,23.23
2022-08-18T23:11:25.719Z,20.40
2022-08-18T23:13:53.973Z,21.80
2022-08-18T23:16:31.768Z,22.90
2022-08-18T23:19:01.969Z,22.10
2022-08-18T23:21:34.285Z,23.80
2022-08-18T23:24:03.173Z,24.67
2022-08-18T23:26:33.869Z,24.00
2022-08-18T23:29:01.630Z,24.43
2022-08-18T23:31:30.216Z,23.27
2022-08-18T23:33:58.885Z,21.97
2022-08-18T23:36:26.604Z,22.63
2022-08-18T23:38:54.595Z,22.10
2022-08-18T23:41:22.630Z,21.67
2022-08-18T23:43:52.370Z,22.83
2022-08-18T23:46:22.907Z,26.27
2022-08-18T23:48:51.584Z,21.67
2022-08-18T23:51:31.130Z,24.60
2022-08-18T23:54:00.746Z,24.93
2022-08-18T23:56:29.756Z,23.90
2022-08-18T23:58:59.861Z,21.30
